createdAt,value
2018-09-21T00:00:52.421Z,18.00
2018-09-21T00:01:52.400Z,18.05
2018-09-21T00:02:52.378Z,18.02
2018-09-21T00:03:52.354Z,18.05
2018-09-21T00:04:52.333Z,18.00
2018-09-21T00:05:52.312Z,17.95
2018-09-21T00:06:52.292Z,17.97
2018-09-21T00:07:52.270Z,17.97
2018-09-21T00:08:52.248Z,18.03
2018-09-21T00:09:52.228Z,17.99
2018-09-21T00:10:52.204Z,17.87
2018-09-21T00:11:52.182Z,17.95
2018-09-21T00:12:52.160Z,17.97
2018-09-21T00:13:52.139Z,17.86
2018-09-21T00:14:52.120Z,17.87
2018-09-21T00:15:52.095Z,17.87
2018-09-21T00:16:52.074Z,17.82
2018-09-21T00:17:52.053Z,17.84
2018-09-21T00:18:52.030Z,17.87
2018-09-21T00:19:52.009Z,17.86
2018-09-21T00:20:51.988Z,17.95
2018-09-21T00:21:51.966Z,17.90
2018-09-21T00:22:51.944Z,17.86
2018-09-21T00:23:51.923Z,17.84
2018-09-21T00:24:51.901Z,17.84
2018-09-21T00:25:51.880Z,17.84
2018-09-21T00:26:51.859Z,17.82
2018-09-21T00:27:51.835Z,17.86
2018-09-21T00:28:51.815Z,17.89
2018-09-21T00:29:51.795Z,17.84
2018-09-21T00:30:51.771Z,17.78
2018-09-21T00:31:51.749Z,17.79
2018-09-21T00:32:51.735Z,17.64
2018-09-21T00:33:51.708Z,17.63
2018-09-21T00:34:51.687Z,17.70
2018-09-21T00:35:51.664Z,17.64
2018-09-21T00:36:51.640Z,17.66
2018-09-21T00:37:51.621Z,17.70
2018-09-21T00:38:51.600Z,17.78
2018-09-21T00:39:51.574Z,17.78
2018-09-21T00:40:51.554Z,17.84
2018-09-21T00:41:51.534Z,17.81
2018-09-21T00:42:51.511Z,17.82
2018-09-21T00:43:51.490Z,17.81
2018-09-21T00:44:51.467Z,17.79
2018-09-21T00:45:51.447Z,17.99
2018-09-21T00:46:51.425Z,17.96
2018-09-21T00:47:51.401Z,17.96
2018-09-21T00:48:51.380Z,17.97
2018-09-21T00:49:51.359Z,17.96
2018-09-21T00:50:51.337Z,17.89
2018-09-21T00:51:51.315Z,17.89
2018-09-21T00:52:51.293Z,17.86
2018-09-21T00:53:51.270Z,17.89
2018-09-21T00:54:51.251Z,18.03
2018-09-21T00:55:51.227Z,18.03
2018-09-21T00:56:51.206Z,18.11
2018-09-21T00:57:51.185Z,18.07
2018-09-21T00:58:51.164Z,18.07
2018-09-21T00:59:51.141Z,18.03
2018-09-21T01:00:51.121Z,17.96
2018-09-21T01:01:51.095Z,17.95
2018-09-21T01:02:51.075Z,18.02
2018-09-21T01:03:51.054Z,17.92
2018-09-21T01:04:51.032Z,17.84
2018-09-21T01:05:51.011Z,17.89
2018-09-21T01:06:50.989Z,17.86
2018-09-21T01:07:50.965Z,17.89
2018-09-21T01:08:50.944Z,17.79
2018-09-21T01:09:50.924Z,17.82
2018-09-21T01:10:50.902Z,17.79
2018-09-21T01:11:50.880Z,17.82
2018-09-21T01:12:50.857Z,17.81
2018-09-21T01:13:50.837Z,17.86
2018-09-21T01:14:50.816Z,17.89
2018-09-21T01:15:50.792Z,17.79
2018-09-21T01:16:50.775Z,17.90
2018-09-21T01:17:50.750Z,17.82
2018-09-21T01:18:50.726Z,17.93
2018-09-21T01:19:50.706Z,17.90
2018-09-21T01:20:50.683Z,17.99
2018-09-21T01:21:50.662Z,17.89
2018-09-21T01:22:50.640Z,17.97
2018-09-21T01:23:50.618Z,18.00
2018-09-21T01:24:50.595Z,17.99
2018-09-21T01:25:50.574Z,17.96
2018-09-21T01:26:50.553Z,17.96
2018-09-21T01:27:50.531Z,17.93
2018-09-21T01:28:50.509Z,17.96
2018-09-21T01:29:50.489Z,18.03
2018-09-21T01:30:50.466Z,17.97
2018-09-21T01:31:50.444Z,18.02
2018-09-21T01:32:50.514Z,17.82
2018-09-21T01:33:50.401Z,17.81
2018-09-21T01:34:50.379Z,17.79
2018-09-21T01:35:50.357Z,17.81
2018-09-21T01:36:50.335Z,17.75
2018-09-21T01:37:50.313Z,17.72
2018-09-21T01:38:50.293Z,17.86
2018-09-21T01:39:50.271Z,17.87
2018-09-21T01:40:50.247Z,17.92
2018-09-21T01:41:50.227Z,17.89
2018-09-21T01:42:50.205Z,17.84
2018-09-21T01:43:50.183Z,17.81
2018-09-21T01:44:50.160Z,17.79
2018-09-21T01:45:50.139Z,17.86
2018-09-21T01:46:50.117Z,17.77
2018-09-21T01:47:50.094Z,17.77
2018-09-21T01:48:50.073Z,17.72
2018-09-21T01:49:50.051Z,17.72
2018-09-21T01:50:50.031Z,17.87
2018-09-21T01:51:50.008Z,17.81
2018-09-21T01:52:49.986Z,17.84
2018-09-21T01:53:49.965Z,17.77
2018-09-21T01:54:49.943Z,17.78
2018-09-21T01:55:49.920Z,17.75
2018-09-21T01:56:49.898Z,17.66
2018-09-21T01:57:49.877Z,17.54
2018-09-21T01:58:49.853Z,17.51
2018-09-21T01:59:49.832Z,17.52
2018-09-21T02:00:49.810Z,17.54
2018-09-21T02:01:49.833Z,17.41
2018-09-21T02:02:49.767Z,17.41
2018-09-21T02:03:49.744Z,17.33
2018-09-21T02:04:49.723Z,17.31
2018-09-21T02:05:49.708Z,17.31
2018-09-21T02:06:49.685Z,17.25
2018-09-21T02:07:49.656Z,17.18
2018-09-21T02:08:49.634Z,17.23
2018-09-21T02:09:49.613Z,17.15
2018-09-21T02:10:49.592Z,17.25
2018-09-21T02:11:49.569Z,17.25
2018-09-21T02:12:49.546Z,17.36
2018-09-21T02:13:49.526Z,17.31
2018-09-21T02:14:49.503Z,17.19
2018-09-21T02:15:49.479Z,17.25
2018-09-21T02:16:49.457Z,17.19
2018-09-21T02:17:49.437Z,17.14
2018-09-21T02:18:49.414Z,17.21
2018-09-21T02:19:49.392Z,17.07
2018-09-21T02:20:49.370Z,17.25
2018-09-21T02:21:49.347Z,17.15
2018-09-21T02:22:49.326Z,17.15
2018-09-21T02:23:49.302Z,17.16
2018-09-21T02:24:49.282Z,17.11
2018-09-21T02:25:49.265Z,17.07
2018-09-21T02:26:49.238Z,16.96
2018-09-21T02:27:49.215Z,17.01
2018-09-21T02:28:49.192Z,16.91
2018-09-21T02:29:49.172Z,16.91
2018-09-21T02:30:49.150Z,16.98
2018-09-21T02:31:49.125Z,16.97
2018-09-21T02:32:49.104Z,16.98
2018-09-21T02:33:49.083Z,17.03
2018-09-21T02:34:49.073Z,16.98
2018-09-21T02:35:49.038Z,16.82
2018-09-21T02:36:49.016Z,16.91
2018-09-21T02:37:48.994Z,16.94
2018-09-21T02:38:48.972Z,17.00
2018-09-21T02:39:48.948Z,16.98
2018-09-21T02:40:48.928Z,16.97
2018-09-21T02:41:48.904Z,16.89
2018-09-21T02:42:48.883Z,16.86
2018-09-21T02:43:48.859Z,16.93
2018-09-21T02:44:48.836Z,16.98
2018-09-21T02:45:48.817Z,17.00
2018-09-21T02:46:48.794Z,16.97
2018-09-21T02:47:48.769Z,16.93
2018-09-21T02:48:48.758Z,16.91
2018-09-21T02:49:48.726Z,16.82
2018-09-21T02:50:48.706Z,16.78
2018-09-21T02:51:48.682Z,16.76
2018-09-21T02:52:48.661Z,16.79
2018-09-21T02:53:48.638Z,16.76
2018-09-21T02:54:48.616Z,16.81
2018-09-21T02:55:48.595Z,16.75
2018-09-21T02:56:48.572Z,16.91
2018-09-21T02:57:48.548Z,16.91
2018-09-21T02:58:48.526Z,16.89
2018-09-21T02:59:48.503Z,16.97
2018-09-21T03:00:48.592Z,16.97
2018-09-21T03:01:48.460Z,17.12
2018-09-21T03:02:48.436Z,17.18
2018-09-21T03:03:48.414Z,17.25
2018-09-21T03:04:48.394Z,17.31
2018-09-21T03:05:48.370Z,17.31
2018-09-21T03:06:48.348Z,17.34
2018-09-21T03:07:48.324Z,17.30
2018-09-21T03:08:48.303Z,17.36
2018-09-21T03:09:48.285Z,17.30
2018-09-21T03:10:48.258Z,17.30
2018-09-21T03:11:48.236Z,17.28
2018-09-21T03:12:48.219Z,17.19
2018-09-21T03:13:48.192Z,17.15
2018-09-21T03:14:48.169Z,17.30
2018-09-21T03:15:48.146Z,17.38
2018-09-21T03:16:48.125Z,17.54
2018-09-21T03:17:48.102Z,17.55
2018-09-21T03:18:48.082Z,17.52
2018-09-21T03:19:48.057Z,17.44
2018-09-21T03:20:48.036Z,17.49
2018-09-21T03:21:48.013Z,17.63
2018-09-21T03:22:47.992Z,17.62
2018-09-21T03:23:47.968Z,17.64
2018-09-21T03:24:47.948Z,17.59
2018-09-21T03:25:47.925Z,17.51
2018-09-21T03:26:47.902Z,17.51
2018-09-21T03:27:47.878Z,17.43
2018-09-21T03:28:47.861Z,17.44
2018-09-21T03:29:47.836Z,17.43
2018-09-21T03:30:47.815Z,17.37
2018-09-21T03:31:47.791Z,17.44
2018-09-21T03:32:47.769Z,17.55
2018-09-21T03:33:47.747Z,17.56
2018-09-21T03:34:47.738Z,17.55
2018-09-21T03:35:47.703Z,17.55
2018-09-21T03:36:47.683Z,17.49
2018-09-21T03:37:47.659Z,17.49
2018-09-21T03:38:47.636Z,17.62
2018-09-21T03:39:47.615Z,17.71
2018-09-21T03:40:47.593Z,17.81
2018-09-21T03:41:47.571Z,17.79
2018-09-21T03:42:47.550Z,17.86
2018-09-21T03:43:47.527Z,17.93
2018-09-21T03:44:47.505Z,17.96
2018-09-21T03:45:47.483Z,18.00
2018-09-21T03:46:47.459Z,17.82
2018-09-21T03:47:47.437Z,17.90
2018-09-21T03:48:47.416Z,17.84
2018-09-21T03:49:47.397Z,17.84
2018-09-21T03:50:47.371Z,17.84
2018-09-21T03:51:47.350Z,17.84
2018-09-21T03:52:47.329Z,17.84
2018-09-21T03:53:47.305Z,17.79
2018-09-21T03:54:47.283Z,17.68
2018-09-21T03:55:47.261Z,17.74
2018-09-21T03:56:47.240Z,17.66
2018-09-21T03:57:47.218Z,17.66
2018-09-21T03:58:47.196Z,17.72
2018-09-21T03:59:47.174Z,17.71
2018-09-21T04:00:47.153Z,17.77
2018-09-21T04:01:47.130Z,17.86
2018-09-21T04:02:47.108Z,17.84
2018-09-21T04:03:47.089Z,17.81
2018-09-21T04:04:47.062Z,17.79
2018-09-21T04:05:47.042Z,17.74
2018-09-21T04:06:47.020Z,17.79
2018-09-21T04:07:46.997Z,17.84
2018-09-21T04:08:46.976Z,17.87
2018-09-21T04:09:46.957Z,17.92
2018-09-21T04:10:46.931Z,17.84
2018-09-21T04:11:46.908Z,17.90
2018-09-21T04:12:46.886Z,18.03
2018-09-21T04:13:46.865Z,18.00
2018-09-21T04:14:46.844Z,18.11
2018-09-21T04:15:46.826Z,18.00
2018-09-21T04:16:46.801Z,18.08
2018-09-21T04:17:46.776Z,18.11
2018-09-21T04:18:46.754Z,18.18
2018-09-21T04:19:46.731Z,18.15
2018-09-21T04:20:46.711Z,18.07
2018-09-21T04:21:46.689Z,18.08
2018-09-21T04:22:46.668Z,18.12
2018-09-21T04:23:46.646Z,18.10
2018-09-21T04:24:46.622Z,18.17
2018-09-21T04:25:46.599Z,18.14
2018-09-21T04:26:46.579Z,18.14
2018-09-21T04:27:46.556Z,18.14
2018-09-21T04:28:46.536Z,18.12
2018-09-21T04:29:46.514Z,18.07
2018-09-21T04:30:46.491Z,18.08
2018-09-21T04:31:46.468Z,18.20
2018-09-21T04:32:46.449Z,18.26
2018-09-21T04:33:46.425Z,18.20
2018-09-21T04:34:46.402Z,18.26
2018-09-21T04:35:46.381Z,18.21
2018-09-21T04:36:46.359Z,18.29
2018-09-21T04:37:46.338Z,18.33
2018-09-21T04:38:46.316Z,18.32
2018-09-21T04:39:46.292Z,18.27
2018-09-21T04:40:46.270Z,18.27
2018-09-21T04:41:46.248Z,18.36
2018-09-21T04:42:46.227Z,18.42
2018-09-21T04:43:46.205Z,18.48
2018-09-21T04:44:46.184Z,18.41
2018-09-21T04:45:46.176Z,18.47
2018-09-21T04:46:46.139Z,18.42
2018-09-21T04:47:46.116Z,18.48
2018-09-21T04:48:46.096Z,18.47
2018-09-21T04:49:46.073Z,18.50
2018-09-21T04:50:46.052Z,18.52
2018-09-21T04:51:46.029Z,18.55
2018-09-21T04:52:46.008Z,18.48
2018-09-21T04:53:45.986Z,18.48
2018-09-21T04:54:45.965Z,18.52
2018-09-21T04:55:45.943Z,18.52
2018-09-21T04:56:45.921Z,18.63
2018-09-21T04:57:45.899Z,18.48
2018-09-21T04:58:45.878Z,18.62
2018-09-21T04:59:45.855Z,18.63
2018-09-21T05:00:45.834Z,18.66
2018-09-21T05:01:45.811Z,18.58
2018-09-21T05:02:45.793Z,18.65
2018-09-21T05:03:45.768Z,18.57
2018-09-21T05:04:45.747Z,18.54
2018-09-21T05:05:45.726Z,18.57
2018-09-21T05:06:45.704Z,18.54
2018-09-21T05:07:45.680Z,18.60
2018-09-21T05:08:45.658Z,18.55
2018-09-21T05:09:45.642Z,18.50
2018-09-21T05:10:45.616Z,18.48
2018-09-21T05:11:45.593Z,18.44
2018-09-21T05:12:45.572Z,18.54
2018-09-21T05:13:45.618Z,18.63
2018-09-21T05:14:45.530Z,18.66
2018-09-21T05:15:45.508Z,18.69
2018-09-21T05:16:45.485Z,18.81
2018-09-21T05:17:45.464Z,18.84
2018-09-21T05:18:45.443Z,18.84
2018-09-21T05:19:45.435Z,18.87
2018-09-21T05:20:45.399Z,18.95
2018-09-21T05:21:45.376Z,18.92
2018-09-21T05:22:45.355Z,19.02
2018-09-21T05:23:45.333Z,18.91
2018-09-21T05:24:45.313Z,18.92
2018-09-21T05:25:45.291Z,18.99
2018-09-21T05:26:45.270Z,18.95
2018-09-21T05:27:45.246Z,19.10
2018-09-21T05:28:45.225Z,19.16
2018-09-21T05:29:45.204Z,19.19
2018-09-21T05:30:45.183Z,19.22
2018-09-21T05:31:45.161Z,19.23
2018-09-21T05:32:45.138Z,19.33
2018-09-21T05:33:45.121Z,19.36
2018-09-21T05:34:45.283Z,19.37
2018-09-21T05:35:45.075Z,19.41
2018-09-21T05:36:45.054Z,19.44
2018-09-21T05:37:45.031Z,19.50
2018-09-21T05:38:45.010Z,19.47
2018-09-21T05:39:44.989Z,19.51
2018-09-21T05:40:44.968Z,19.55
2018-09-21T05:41:44.948Z,19.47
2018-09-21T05:42:44.928Z,19.58
2018-09-21T05:43:44.903Z,19.51
2018-09-21T05:44:44.884Z,19.51
2018-09-21T05:45:44.864Z,19.47
2018-09-21T05:46:44.849Z,19.47
2018-09-21T05:47:44.820Z,19.44
2018-09-21T05:48:44.798Z,19.48
2018-09-21T05:49:44.777Z,19.43
2018-09-21T05:50:44.756Z,19.43
2018-09-21T05:51:44.734Z,19.47
2018-09-21T05:52:44.713Z,19.48
2018-09-21T05:53:44.692Z,19.43
2018-09-21T05:54:44.670Z,19.46
2018-09-21T05:55:44.654Z,19.41
2018-09-21T05:56:44.630Z,19.40
2018-09-21T05:57:44.607Z,19.47
2018-09-21T05:58:44.586Z,19.46
2018-09-21T05:59:44.565Z,19.44
2018-09-21T06:00:44.543Z,19.47
2018-09-21T06:01:44.522Z,19.56
2018-09-21T06:02:44.560Z,19.51
2018-09-21T06:03:44.478Z,19.48
2018-09-21T06:04:44.458Z,19.56
2018-09-21T06:05:44.438Z,19.62
2018-09-21T06:06:44.417Z,19.73
2018-09-21T06:07:44.416Z,19.87
2018-09-21T06:08:44.373Z,20.18
2018-09-21T06:09:44.352Z,20.51
2018-09-21T06:10:44.332Z,20.48
2018-09-21T06:11:44.310Z,20.43
2018-09-21T06:12:44.289Z,20.48
2018-09-21T06:13:44.277Z,20.47
2018-09-21T06:14:44.248Z,20.64
2018-09-21T06:15:44.226Z,20.76
2018-09-21T06:16:44.203Z,20.73
2018-09-21T06:17:44.186Z,20.72
2018-09-21T06:18:44.165Z,21.03
2018-09-21T06:19:44.148Z,21.22
2018-09-21T06:20:44.121Z,21.68
2018-09-21T06:21:44.102Z,22.17
2018-09-21T06:22:45.336Z,22.24
2018-09-21T06:23:44.062Z,22.58
2018-09-21T06:24:44.042Z,22.95
2018-09-21T06:25:44.021Z,23.53
2018-09-21T06:26:44.002Z,23.68
2018-09-21T06:27:43.980Z,23.46
2018-09-21T06:28:43.961Z,23.23
2018-09-21T06:29:43.942Z,23.69
2018-09-21T06:30:43.923Z,23.78
2018-09-21T06:31:43.903Z,23.78
2018-09-21T06:32:43.886Z,23.91
2018-09-21T06:33:43.865Z,24.25
2018-09-21T06:34:43.848Z,24.30
2018-09-21T06:35:43.826Z,24.09
2018-09-21T06:36:43.809Z,23.50
2018-09-21T06:37:43.791Z,23.25
2018-09-21T06:38:43.771Z,23.50
2018-09-21T06:39:43.754Z,23.73
2018-09-21T06:40:43.735Z,23.91
2018-09-21T06:41:43.721Z,24.42
2018-09-21T06:42:43.699Z,24.55
2018-09-21T06:43:43.680Z,24.55
2018-09-21T06:44:43.713Z,24.68
2018-09-21T06:45:43.647Z,24.78
2018-09-21T06:46:43.628Z,25.17
2018-09-21T06:47:43.607Z,25.55
2018-09-21T06:48:43.594Z,25.82
2018-09-21T06:49:43.605Z,25.77
2018-09-21T06:50:43.559Z,25.92
2018-09-21T06:51:43.537Z,26.17
2018-09-21T06:52:43.520Z,26.10
2018-09-21T06:53:43.504Z,25.82
2018-09-21T06:54:43.486Z,25.88
2018-09-21T06:55:43.472Z,25.83
2018-09-21T06:56:43.453Z,25.97
2018-09-21T06:57:43.436Z,26.29
2018-09-21T06:58:43.420Z,26.35
2018-09-21T06:59:43.404Z,26.50
2018-09-21T07:00:43.388Z,26.75
2018-09-21T07:01:43.379Z,26.66
2018-09-21T07:02:43.355Z,27.12
2018-09-21T07:03:43.339Z,27.00
2018-09-21T07:04:43.323Z,27.00
2018-09-21T07:05:43.308Z,26.54
2018-09-21T07:06:43.292Z,27.03
2018-09-21T07:07:43.276Z,27.03
2018-09-21T07:08:43.259Z,26.82
2018-09-21T07:09:43.246Z,26.54
2018-09-21T07:10:43.230Z,26.94
2018-09-21T07:11:43.211Z,27.12
2018-09-21T07:12:43.198Z,26.95
2018-09-21T07:13:43.186Z,26.84
2018-09-21T07:14:43.167Z,26.88
2018-09-21T07:15:43.167Z,26.63
2018-09-21T07:16:43.136Z,26.85
2018-09-21T07:17:43.120Z,27.21
2018-09-21T07:18:43.106Z,27.65
2018-09-21T07:19:43.093Z,27.10
2018-09-21T07:20:43.075Z,27.34
2018-09-21T07:21:43.059Z,27.59
2018-09-21T07:22:43.045Z,27.94
2018-09-21T07:23:43.029Z,28.09
2018-09-21T07:24:43.013Z,28.02
2018-09-21T07:25:43.000Z,27.94
2018-09-21T07:26:42.984Z,27.47
2018-09-21T07:27:42.971Z,27.78
2018-09-21T07:28:42.955Z,27.96
2018-09-21T07:29:42.940Z,28.12
2018-09-21T07:30:42.926Z,28.07
2018-09-21T07:31:42.916Z,28.04
2018-09-21T07:32:42.901Z,28.04
2018-09-21T07:33:42.881Z,28.19
2018-09-21T07:34:42.868Z,28.15
2018-09-21T07:35:42.852Z,27.81
2018-09-21T07:36:42.838Z,27.96
2018-09-21T07:37:42.824Z,28.46
2018-09-21T07:38:42.813Z,28.18
2018-09-21T07:39:42.795Z,27.93
2018-09-21T07:40:42.782Z,27.81
2018-09-21T07:41:42.767Z,27.97
2018-09-21T07:42:42.756Z,27.97
2018-09-21T07:43:42.738Z,28.29
2018-09-21T07:44:42.770Z,28.29
2018-09-21T07:45:42.709Z,28.40
2018-09-21T07:46:42.701Z,28.70
2018-09-21T07:47:42.679Z,28.44
2018-09-21T07:48:42.668Z,28.54
2018-09-21T07:49:42.653Z,28.92
2018-09-21T07:50:42.637Z,28.49
2018-09-21T07:51:42.623Z,28.40
2018-09-21T07:52:42.609Z,28.27
2018-09-21T07:53:42.595Z,28.22
2018-09-21T07:54:42.581Z,28.44
2018-09-21T07:55:42.567Z,28.89
2018-09-21T07:56:42.553Z,28.56
2018-09-21T07:57:42.539Z,28.66
2018-09-21T07:58:42.524Z,29.08
2018-09-21T07:59:42.509Z,28.90
2018-09-21T08:00:42.497Z,28.43
2018-09-21T08:01:42.490Z,28.76
2018-09-21T08:02:42.468Z,28.95
2018-09-21T08:03:42.456Z,28.71
2018-09-21T08:04:42.443Z,28.85
2018-09-21T08:05:42.426Z,28.80
2018-09-21T08:06:42.413Z,29.19
2018-09-21T08:07:42.397Z,29.53
2018-09-21T08:08:42.385Z,29.49
2018-09-21T08:09:42.370Z,29.53
2018-09-21T08:10:42.358Z,29.70
2018-09-21T08:11:42.344Z,28.98
2018-09-21T08:12:42.385Z,28.88
2018-09-21T08:13:42.317Z,28.54
2018-09-21T08:14:42.303Z,28.43
2018-09-21T08:15:42.288Z,28.02
2018-09-21T08:16:42.275Z,27.57
2018-09-21T08:17:42.261Z,27.54
2018-09-21T08:18:42.251Z,27.63
2018-09-21T08:19:42.232Z,27.12
2018-09-21T08:20:42.220Z,27.03
2018-09-21T08:21:42.206Z,27.06
2018-09-21T08:22:42.190Z,27.13
2018-09-21T08:23:42.175Z,27.88
2018-09-21T08:24:42.161Z,28.25
2018-09-21T08:25:42.146Z,28.58
2018-09-21T08:26:42.150Z,28.18
2018-09-21T08:27:42.117Z,28.21
2018-09-21T08:28:42.105Z,28.27
2018-09-21T08:29:42.089Z,28.34
2018-09-21T08:30:42.073Z,28.43
2018-09-21T08:31:42.058Z,28.56
2018-09-21T08:32:42.042Z,28.77
2018-09-21T08:33:42.030Z,28.78
2018-09-21T08:34:42.027Z,28.98
2018-09-21T08:35:41.999Z,29.16
2018-09-21T08:36:41.985Z,29.58
2018-09-21T08:37:41.971Z,29.04
2018-09-21T08:38:41.956Z,29.41
2018-09-21T08:39:41.944Z,29.95
2018-09-21T08:40:41.927Z,29.89
2018-09-21T08:41:41.914Z,29.80
2018-09-21T08:42:41.956Z,29.57
2018-09-21T08:43:41.886Z,29.12
2018-09-21T08:44:41.874Z,29.12
2018-09-21T08:45:41.946Z,28.85
2018-09-21T08:46:41.852Z,28.86
2018-09-21T08:47:41.831Z,29.02
2018-09-21T08:48:41.817Z,28.92
2018-09-21T08:49:41.802Z,29.33
2018-09-21T08:50:41.788Z,30.27
2018-09-21T08:51:41.775Z,30.83
2018-09-21T08:52:41.760Z,31.21
2018-09-21T08:53:41.746Z,31.01
2018-09-21T08:54:41.732Z,31.39
2018-09-21T08:55:41.718Z,31.69
2018-09-21T08:56:41.706Z,31.66
2018-09-21T08:57:41.692Z,31.26
2018-09-21T08:58:41.679Z,30.60
2018-09-21T08:59:41.666Z,30.49
2018-09-21T09:00:41.652Z,30.91
2018-09-21T09:01:41.638Z,31.13
2018-09-21T09:02:41.649Z,30.23
2018-09-21T09:03:41.612Z,29.31
2018-09-21T09:04:41.599Z,28.95
2018-09-21T09:05:41.591Z,29.31
2018-09-21T09:06:41.573Z,29.65
2018-09-21T09:07:41.562Z,29.64
2018-09-21T09:08:41.545Z,29.57
2018-09-21T09:09:41.532Z,29.30
2018-09-21T09:10:41.520Z,29.00
2018-09-21T09:11:41.505Z,28.95
2018-09-21T09:12:41.492Z,29.11
2018-09-21T09:13:41.477Z,29.12
2018-09-21T09:14:41.467Z,29.19
2018-09-21T09:15:41.451Z,28.67
2018-09-21T09:16:41.439Z,28.41
2018-09-21T09:17:41.424Z,28.24
2018-09-21T09:18:41.417Z,28.43
2018-09-21T09:19:41.394Z,27.94
2018-09-21T09:20:41.382Z,27.97
2018-09-21T09:21:41.368Z,27.84
2018-09-21T09:22:41.355Z,27.84
2018-09-21T09:23:41.340Z,27.96
2018-09-21T09:25:41.312Z,27.75
2018-09-21T09:26:41.299Z,27.77
2018-09-21T09:27:41.281Z,27.67
2018-09-21T09:28:41.267Z,27.81
2018-09-21T09:29:41.253Z,27.82
2018-09-21T09:30:41.238Z,27.75
2018-09-21T09:31:41.223Z,27.94
2018-09-21T09:32:41.211Z,27.97
2018-09-21T09:33:41.195Z,28.22
2018-09-21T09:34:41.179Z,28.29
2018-09-21T09:35:41.163Z,28.30
2018-09-21T09:36:41.355Z,28.40
2018-09-21T09:37:41.135Z,28.41
2018-09-21T09:38:41.119Z,28.24
2018-09-21T09:39:41.103Z,28.59
2018-09-21T09:40:41.092Z,28.64
2018-09-21T09:41:41.075Z,28.40
2018-09-21T09:42:41.105Z,28.18
2018-09-21T09:43:41.044Z,28.12
2018-09-21T09:44:41.029Z,28.12
2018-09-21T09:45:41.016Z,28.02
2018-09-21T09:46:40.999Z,28.02
2018-09-21T09:47:40.985Z,27.94
2018-09-21T09:48:40.977Z,27.97
2018-09-21T09:49:40.956Z,27.81
2018-09-21T09:50:40.940Z,27.85
2018-09-21T09:51:40.928Z,27.62
2018-09-21T09:52:40.910Z,27.65
2018-09-21T09:53:40.895Z,27.59
2018-09-21T09:54:40.914Z,27.47
2018-09-21T09:55:40.865Z,27.37
2018-09-21T09:56:40.849Z,27.49
2018-09-21T09:57:40.833Z,27.46
2018-09-21T09:58:40.818Z,27.54
2018-09-21T09:59:40.801Z,27.60
2018-09-21T10:00:40.787Z,27.77
2018-09-21T10:01:40.772Z,27.70
2018-09-21T10:02:40.762Z,27.72
2018-09-21T10:03:40.872Z,27.74
2018-09-21T10:04:40.725Z,27.66
2018-09-21T10:05:40.709Z,27.66
2018-09-21T10:06:40.694Z,27.55
2018-09-21T10:07:40.677Z,27.57
2018-09-21T10:08:40.661Z,27.66
2018-09-21T10:09:40.647Z,27.65
2018-09-21T10:10:40.631Z,27.66
2018-09-21T10:11:40.620Z,27.65
2018-09-21T10:12:40.600Z,27.67
2018-09-21T10:13:40.583Z,27.72
2018-09-21T10:14:40.569Z,27.78
2018-09-21T10:15:40.554Z,27.74
2018-09-21T10:16:40.537Z,27.75
2018-09-21T10:17:40.522Z,27.63
2018-09-21T10:18:40.505Z,27.62
2018-09-21T10:19:40.489Z,27.54
2018-09-21T10:20:40.486Z,27.63
2018-09-21T10:21:40.459Z,27.44
2018-09-21T10:22:40.447Z,27.37
2018-09-21T10:23:40.426Z,27.37
2018-09-21T10:24:40.416Z,27.31
2018-09-21T10:25:40.396Z,27.14
2018-09-21T10:26:40.390Z,27.22
2018-09-21T10:27:40.520Z,27.03
2018-09-21T10:28:40.665Z,27.06
2018-09-21T10:29:40.410Z,27.06
2018-09-21T10:30:40.318Z,26.97
2018-09-21T10:31:40.303Z,26.92
2018-09-21T10:32:40.322Z,26.97
2018-09-21T10:33:40.369Z,26.91
2018-09-21T10:34:40.303Z,26.82
2018-09-21T10:35:40.340Z,26.81
2018-09-21T10:36:40.223Z,26.84
2018-09-21T10:37:40.214Z,26.84
2018-09-21T10:38:40.216Z,26.80
2018-09-21T10:39:40.176Z,26.70
2018-09-21T10:40:40.159Z,26.73
2018-09-21T10:41:40.143Z,26.73
2018-09-21T10:42:40.286Z,26.67
2018-09-21T10:43:40.110Z,26.70
2018-09-21T10:44:40.094Z,26.72
2018-09-21T10:45:40.079Z,26.69
2018-09-21T10:46:40.061Z,26.72
2018-09-21T10:47:40.044Z,26.75
2018-09-21T10:48:40.029Z,26.60
2018-09-21T10:49:40.012Z,26.73
2018-09-21T10:50:39.996Z,26.87
2018-09-21T10:51:39.981Z,26.85
2018-09-21T10:52:40.020Z,26.70
2018-09-21T10:53:39.950Z,26.72
2018-09-21T10:54:39.933Z,26.70
2018-09-21T10:55:39.918Z,26.67
2018-09-21T10:56:39.901Z,26.72
2018-09-21T10:57:39.883Z,26.72
2018-09-21T10:58:39.877Z,26.62
2018-09-21T10:59:39.850Z,26.63
2018-09-21T11:00:39.890Z,26.62
2018-09-21T11:01:39.817Z,26.54
2018-09-21T11:02:39.802Z,26.51
2018-09-21T11:03:39.785Z,26.50
2018-09-21T11:04:39.774Z,26.47
2018-09-21T11:05:39.752Z,26.36
2018-09-21T11:06:39.737Z,26.40
2018-09-21T11:07:39.718Z,26.40
2018-09-21T11:08:39.704Z,26.37
2018-09-21T11:09:39.685Z,26.37
2018-09-21T11:10:39.671Z,26.40
2018-09-21T11:11:39.654Z,26.39
2018-09-21T11:12:39.637Z,26.35
2018-09-21T11:13:39.623Z,26.32
2018-09-21T11:14:39.604Z,26.39
2018-09-21T11:15:39.588Z,26.35
2018-09-21T11:16:39.569Z,26.33
2018-09-21T11:17:39.555Z,26.36
2018-09-21T11:18:39.537Z,26.44
2018-09-21T11:19:39.520Z,26.47
2018-09-21T11:20:39.508Z,26.52
2018-09-21T11:21:39.486Z,26.55
2018-09-21T11:22:39.472Z,26.60
2018-09-21T11:23:39.454Z,26.57
2018-09-21T11:24:39.439Z,26.55
2018-09-21T11:25:39.422Z,26.47
2018-09-21T11:26:39.405Z,26.57
2018-09-21T11:27:39.389Z,26.69
2018-09-21T11:28:39.371Z,26.73
2018-09-21T11:29:39.355Z,26.67
2018-09-21T11:30:39.339Z,26.69
2018-09-21T11:31:39.324Z,26.66
2018-09-21T11:32:39.306Z,26.72
2018-09-21T11:33:39.293Z,26.69
2018-09-21T11:34:39.273Z,26.67
2018-09-21T11:35:39.257Z,26.77
2018-09-21T11:36:39.246Z,26.75
2018-09-21T11:37:39.222Z,26.72
2018-09-21T11:38:39.208Z,26.70
2018-09-21T11:39:39.191Z,26.81
2018-09-21T11:40:39.176Z,26.87
2018-09-21T11:41:39.159Z,26.91
2018-09-21T11:42:39.144Z,27.02
2018-09-21T11:43:39.126Z,27.31
2018-09-21T11:44:39.109Z,27.47
2018-09-21T11:45:39.093Z,27.63
2018-09-21T11:46:39.107Z,27.66
2018-09-21T11:47:39.128Z,27.79
2018-09-21T11:48:39.044Z,27.94
2018-09-21T11:49:39.029Z,27.92
2018-09-21T11:50:39.013Z,27.72
2018-09-21T11:51:38.996Z,27.62
2018-09-21T11:52:38.981Z,27.90
2018-09-21T11:53:38.964Z,27.81
2018-09-21T11:54:38.947Z,27.79
2018-09-21T11:55:38.933Z,27.82
2018-09-21T11:56:38.917Z,27.84
2018-09-21T11:57:38.901Z,27.81
2018-09-21T11:58:38.888Z,27.94
2018-09-21T11:59:38.869Z,27.79
2018-09-21T12:00:38.853Z,27.66
2018-09-21T12:01:38.858Z,27.69
2018-09-21T12:02:38.825Z,27.67
2018-09-21T12:03:38.806Z,27.59
2018-09-21T12:04:38.790Z,27.55
2018-09-21T12:05:38.775Z,27.47
2018-09-21T12:06:38.758Z,27.44
2018-09-21T12:07:38.744Z,27.29
2018-09-21T12:08:38.728Z,27.31
2018-09-21T12:09:38.713Z,27.18
2018-09-21T12:10:38.713Z,27.13
2018-09-21T12:11:38.680Z,27.06
2018-09-21T12:12:38.665Z,27.03
2018-09-21T12:13:38.651Z,27.04
2018-09-21T12:14:38.633Z,26.97
2018-09-21T12:15:38.617Z,27.04
2018-09-21T12:16:38.600Z,27.06
2018-09-21T12:17:38.585Z,26.99
2018-09-21T12:18:38.568Z,26.94
2018-09-21T12:19:38.556Z,26.94
2018-09-21T12:20:38.537Z,26.88
2018-09-21T12:21:38.520Z,26.82
2018-09-21T12:22:38.517Z,26.69
2018-09-21T12:23:38.486Z,26.45
2018-09-21T12:24:38.470Z,26.29
2018-09-21T12:25:38.456Z,26.32
2018-09-21T12:26:38.440Z,26.01
2018-09-21T12:27:38.433Z,25.36
2018-09-21T12:28:38.406Z,24.21
2018-09-21T12:29:38.390Z,22.55
2018-09-21T12:30:38.375Z,21.37
2018-09-21T12:31:38.357Z,20.47
2018-09-21T12:32:38.337Z,19.91
2018-09-21T12:33:38.319Z,19.63
2018-09-21T12:34:38.305Z,19.21
2018-09-21T12:35:38.286Z,18.95
2018-09-21T12:36:38.265Z,18.94
2018-09-21T12:37:38.245Z,18.94
2018-09-21T12:38:38.290Z,18.81
2018-09-21T12:39:38.206Z,18.75
2018-09-21T12:40:38.187Z,18.62
2018-09-21T12:41:38.168Z,18.55
2018-09-21T12:42:38.213Z,18.52
2018-09-21T12:43:38.129Z,18.57
2018-09-21T12:44:38.143Z,18.45
2018-09-21T12:45:38.089Z,18.52
2018-09-21T12:46:38.068Z,18.42
2018-09-21T12:47:38.047Z,18.36
2018-09-21T12:48:38.027Z,18.29
2018-09-21T12:49:38.006Z,18.32
2018-09-21T12:50:38.032Z,18.30
2018-09-21T12:51:37.966Z,18.29
2018-09-21T12:52:37.946Z,18.32
2018-09-21T12:53:37.922Z,18.20